Time;durP1;ratioP1;P1;durP2;ratioP2;P2;SDS_P1;SDS_P2;PMS_P1;PMS_P2;Temp;Humidity;BMP_temperature;BMP_pressure;BME280_temperature;BME280_humidity;BME280_pressure;Samples;Min_cycle;Max_cycle;Signal;HPM_P1;HPM_P2
2023/12/07 00:02:00;;;;;;;;;;;;;;;17.89;68.89;100772.66;7382616;19;1710;-42
2023/12/07 00:04:28;;;;;;;;;;;;;;;18.30;67.69;100778.16;7384831;19;1821;-43
2023/12/07 00:06:56;;;;;;;;;;;;;;;18.61;66.62;100779.06;7386716;19;1506;-43
2023/12/07 00:09:25;;;;;;;;;;;;;;;18.44;66.95;100777.88;7393403;19;1830;-42
2023/12/07 00:11:56;;;;;;;;;;;;;;;18.17;67.37;100773.03;7390545;19;1871;-43
2023/12/07 00:14:24;;;;;;;;;;;;;;;18.00;67.94;100790.47;7392600;19;1562;-43
2023/12/07 00:16:52;;;;;;;;;;;;;;;17.96;68.08;100783.69;7390120;19;1677;-43
2023/12/07 00:19:21;;;;;;;;;;;;;;;17.97;67.90;100790.75;7383424;19;1637;-43
2023/12/07 00:21:49;;;;;;;;;;;;;;;17.99;67.91;100787.97;7393707;19;1689;-43
2023/12/07 00:24:17;;;;;;;;;;;;;;;17.96;67.99;100798.91;7394503;19;1571;-43
2023/12/07 00:26:46;;;;;;;;;;;;;;;17.86;68.21;100794.31;7393468;19;1756;-42
2023/12/07 00:29:17;;;;;;;;;;;;;;;17.88;68.06;100797.72;7392531;19;1658;-42
2023/12/07 00:31:45;;;;;;;;;;;;;;;17.85;68.18;100803.31;7390663;19;1863;-43
2023/12/07 00:34:13;;;;;;;;;;;;;;;17.85;68.10;100797.13;7390495;19;1578;-43
2023/12/07 00:36:42;;;;;;;;;;;;;;;17.80;68.38;100802.81;7389969;19;1740;-43
2023/12/07 00:39:12;;;;;;;;;;;;;;;18.13;67.80;100811.72;7391158;19;1472;-42
2023/12/07 00:41:40;;;;;;;;;;;;;;;18.55;66.45;100816.25;7391355;19;1614;-42
2023/12/07 00:44:08;;;;;;;;;;;;;;;18.37;66.76;100811.50;7387037;19;1423;-42
2023/12/07 00:46:39;;;;;;;;;;;;;;;18.13;67.09;100819.75;7395876;19;1566;-43
2023/12/07 00:49:07;;;;;;;;;;;;;;;17.94;67.58;100816.91;7389076;19;1491;-43
2023/12/07 00:51:36;;;;;;;;;;;;;;;17.91;67.87;100822.53;7393725;19;1867;-42
2023/12/07 00:54:04;;;;;;;;;;;;;;;17.91;68.03;100819.88;7386014;19;1643;-42
2023/12/07 00:56:32;;;;;;;;;;;;;;;17.93;69.29;100828.59;7394299;19;1673;-42
2023/12/07 00:59:01;;;;;;;;;;;;;;;17.96;68.95;100842.56;7393050;19;1764;-42
2023/12/07 01:01:30;;;;;;;;;;;;;;;17.94;68.48;100827.63;7386720;19;13998;-42
2023/12/07 01:04:01;;;;;;;;;;;;;;;17.82;68.56;100821.41;7390421;19;1771;-42
2023/12/07 01:06:30;;;;;;;;;;;;;;;17.84;68.45;100838.22;7392891;19;1744;-42
2023/12/07 01:08:55;;;;;;;;;;;;;;;17.78;68.47;100831.50;7394717;19;1704;-42
2023/12/07 01:11:24;;;;;;;;;;;;;;;17.74;68.43;100838.09;7392867;19;1844;-42
2023/12/07 01:13:52;;;;;;;;;;;;;;;17.66;69.01;100835.19;7393785;19;1549;-42
2023/12/07 01:16:20;;;;;;;;;;;;;;;18.13;67.61;100827.78;7393200;19;1577;-42
2023/12/07 01:18:48;;;;;;;;;;;;;;;18.53;66.63;100843.16;7378409;19;1557;-42
2023/12/07 01:21:19;;;;;;;;;;;;;;;18.35;66.79;100815.28;7393740;19;1562;-42
2023/12/07 01:23:48;;;;;;;;;;;;;;;18.08;67.09;100835.34;7394355;19;1549;-43
2023/12/07 01:26:17;;;;;;;;;;;;;;;17.92;67.44;100826.91;7392458;19;1953;-43
2023/12/07 01:28:45;;;;;;;;;;;;;;;17.87;67.64;100825.44;7392948;19;1673;-43
2023/12/07 01:31:13;;;;;;;;;;;;;;;17.82;67.74;100814.22;7392182;19;1849;-43
2023/12/07 01:33:41;;;;;;;;;;;;;;;17.84;68.04;100822.16;7393738;19;1580;-43
2023/12/07 01:36:10;;;;;;;;;;;;;;;17.81;67.81;100823.25;7392730;19;1562;-42
2023/12/07 01:38:42;;;;;;;;;;;;;;;17.72;67.91;100834.69;7394011;19;1641;-42
2023/12/07 01:41:10;;;;;;;;;;;;;;;17.68;67.95;100827.91;7393878;19;1485;-42
2023/12/07 01:43:38;;;;;;;;;;;;;;;17.63;68.30;100828.28;7395331;19;1637;-42
2023/12/07 01:46:07;;;;;;;;;;;;;;;17.77;68.16;100827.16;7393028;19;1891;-42
2023/12/07 01:48:35;;;;;;;;;;;;;;;18.15;67.17;100820.47;7391678;19;1879;-42
2023/12/07 01:51:04;;;;;;;;;;;;;;;18.32;66.53;100816.38;7391865;19;1873;-42
2023/12/07 01:53:32;;;;;;;;;;;;;;;18.08;66.86;100820.16;7393059;19;1657;-42
2023/12/07 01:56:03;;;;;;;;;;;;;;;17.98;67.19;100810.34;7392882;19;1681;-42
2023/12/07 01:58:33;;;;;;;;;;;;;;;17.88;67.53;100808.41;7394007;19;1700;-42
2023/12/07 02:01:01;;;;;;;;;;;;;;;17.84;67.54;100820.34;7391943;19;1657;-42
2023/12/07 02:03:30;;;;;;;;;;;;;;;17.76;67.47;100798.69;7392245;19;1524;-42
2023/12/07 02:06:00;;;;;;;;;;;;;;;17.77;67.72;100829.84;7390940;19;1656;-42
2023/12/07 02:08:28;;;;;;;;;;;;;;;17.78;67.77;100823.50;7392092;19;1581;-43
2023/12/07 02:10:56;;;;;;;;;;;;;;;17.73;67.56;100814.16;7391454;19;1885;-42
2023/12/07 02:13:27;;;;;;;;;;;;;;;17.63;67.88;100820.25;7392219;19;1574;-42
2023/12/07 02:15:57;;;;;;;;;;;;;;;17.77;67.79;100837.84;7392761;19;1662;-42
2023/12/07 02:18:31;;;;;;;;;;;;;;;18.18;66.59;100825.56;7377047;19;1579;-42
2023/12/07 02:21:04;;;;;;;;;;;;;;;18.24;66.25;100810.81;7391400;19;1680;-42
2023/12/07 02:23:34;;;;;;;;;;;;;;;18.05;66.78;100835.63;7391862;19;1474;-42
2023/12/07 02:29:01;;;;;;;;;;;;;;;17.81;67.44;100835.78;7391756;19;1555;-42
2023/12/07 02:31:30;;;;;;;;;;;;;;;17.70;67.90;100828.63;7387982;19;1871;-42
2023/12/07 02:33:58;;;;;;;;;;;;;;;17.74;67.74;100838.09;7391761;19;1760;-42
2023/12/07 02:36:27;;;;;;;;;;;;;;;18.52;66.07;100837.94;7390766;19;1673;-42
2023/12/07 02:39:00;;;;;;;;;;;;;;;19.23;63.83;100838.91;7391820;19;1641;-42
2023/12/07 02:41:29;;;;;;;;;;;;;;;19.78;62.41;100854.63;7390895;19;1558;-42
2023/12/07 02:43:57;;;;;;;;;;;;;;;19.91;61.78;100840.94;7390715;19;1567;-42
2023/12/07 02:46:28;;;;;;;;;;;;;;;19.82;62.25;100849.84;7392668;19;1632;-42
2023/12/07 02:48:57;;;;;;;;;;;;;;;19.70;62.14;100846.41;7391677;19;1562;-42
2023/12/07 02:51:25;;;;;;;;;;;;;;;19.67;62.65;100849.34;7390525;19;1914;-42
2023/12/07 02:53:53;;;;;;;;;;;;;;;19.60;62.77;100857.09;7392882;19;1686;-42
2023/12/07 02:56:22;;;;;;;;;;;;;;;19.93;61.92;100852.38;7392326;19;1455;-42
2023/12/07 02:58:50;;;;;;;;;;;;;;;19.96;61.49;100854.78;7392144;19;1681;-43
2023/12/07 03:01:18;;;;;;;;;;;;;;;20.03;61.57;100847.91;7390947;19;1404;-43
2023/12/07 03:03:49;;;;;;;;;;;;;;;20.04;61.28;100846.06;7391908;19;1842;-42
2023/12/07 03:06:19;;;;;;;;;;;;;;;20.13;61.11;100847.03;7390867;19;1767;-42
2023/12/07 03:08:47;;;;;;;;;;;;;;;20.14;61.16;100854.13;7391749;19;1665;-42
2023/12/07 03:11:16;;;;;;;;;;;;;;;20.16;61.18;100857.50;7391369;19;1880;-42
2023/12/07 03:13:44;;;;;;;;;;;;;;;20.13;61.34;100869.34;7391375;19;1621;-42
2023/12/07 03:16:12;;;;;;;;;;;;;;;20.23;60.88;100862.16;7391000;19;1644;-42
2023/12/07 03:18:41;;;;;;;;;;;;;;;20.30;60.69;100880.41;7377055;19;1661;-42
2023/12/07 03:21:12;;;;;;;;;;;;;;;20.22;60.91;100860.47;7392702;19;1661;-42
2023/12/07 03:23:40;;;;;;;;;;;;;;;20.29;60.75;100873.31;7392359;19;1594;-42
2023/12/07 03:26:09;;;;;;;;;;;;;;;20.23;61.00;100867.53;7391210;19;1435;-43
2023/12/07 03:28:37;;;;;;;;;;;;;;;20.21;60.75;100872.22;7389551;19;1749;-42
2023/12/07 03:31:06;;;;;;;;;;;;;;;20.34;60.78;100876.44;7389327;19;1845;-42
2023/12/07 03:33:34;;;;;;;;;;;;;;;20.27;60.88;100877.00;7389713;19;1688;-42
2023/12/07 03:36:02;;;;;;;;;;;;;;;20.32;60.70;100883.78;7389429;19;1633;-43
2023/12/07 03:38:33;;;;;;;;;;;;;;;20.25;60.83;100875.44;7391504;19;1479;-42
2023/12/07 03:41:01;;;;;;;;;;;;;;;20.23;60.80;100889.03;7392933;19;1772;-42
2023/12/07 03:43:30;;;;;;;;;;;;;;;20.33;60.86;100890.84;7400129;19;1812;-43
2023/12/07 03:45:58;;;;;;;;;;;;;;;20.33;60.65;100880.94;7396714;19;1771;-42
2023/12/07 03:48:26;;;;;;;;;;;;;;;20.29;60.93;100897.50;7396405;19;1717;-43
2023/12/07 03:50:54;;;;;;;;;;;;;;;20.37;60.56;100879.69;7397129;19;1648;-46
2023/12/07 03:53:23;;;;;;;;;;;;;;;20.44;60.28;100888.03;7396351;19;1629;-43
2023/12/07 03:55:54;;;;;;;;;;;;;;;20.42;60.50;100890.00;7397351;19;1546;-42
2023/12/07 03:58:23;;;;;;;;;;;;;;;20.51;60.38;100905.25;7394086;19;1752;-42
2023/12/07 04:00:51;;;;;;;;;;;;;;;20.16;60.90;100884.34;7397028;19;1763;-42
2023/12/07 04:03:19;;;;;;;;;;;;;;;19.55;62.50;100891.53;7397750;19;1593;-42
2023/12/07 04:05:48;;;;;;;;;;;;;;;19.19;63.47;100907.19;7398812;19;1759;-43
2023/12/07 04:08:16;;;;;;;;;;;;;;;18.92;64.24;100894.34;7398931;19;1562;-43
2023/12/07 04:10:44;;;;;;;;;;;;;;;18.76;64.31;100900.16;7399218;19;1638;-52
2023/12/07 04:13:15;;;;;;;;;;;;;;;18.63;64.63;100904.84;7398346;19;1851;-42
2023/12/07 04:15:43;;;;;;;;;;;;;;;18.95;63.99;100899.44;7399285;19;1582;-42
2023/12/07 04:18:12;;;;;;;;;;;;;;;19.34;63.33;100899.66;7392514;19;1780;-42
2023/12/07 04:20:40;;;;;;;;;;;;;;;19.63;62.51;100906.94;7387097;19;1693;-55
2023/12/07 04:23:09;;;;;;;;;;;;;;;19.77;61.87;100903.91;7396654;19;1613;-42
2023/12/07 04:25:37;;;;;;;;;;;;;;;19.84;61.45;100918.47;7395856;19;1446;-42
2023/12/07 04:28:05;;;;;;;;;;;;;;;19.85;61.69;100913.97;7394219;19;1570;-42
2023/12/07 04:30:36;;;;;;;;;;;;;;;19.83;61.49;100915.94;7395641;19;1640;-54
2023/12/07 04:33:05;;;;;;;;;;;;;;;19.93;61.33;100929.38;7392856;19;2302;-42
2023/12/07 04:35:34;;;;;;;;;;;;;;;19.96;61.23;100911.16;7394465;19;1438;-42
2023/12/07 04:38:02;;;;;;;;;;;;;;;19.98;61.13;100916.41;7395253;19;1844;-42
2023/12/07 04:40:30;;;;;;;;;;;;;;;20.00;61.31;100923.31;7394843;19;1925;-42
2023/12/07 04:42:59;;;;;;;;;;;;;;;19.86;61.62;100931.78;7393234;19;1538;-43
2023/12/07 04:45:27;;;;;;;;;;;;;;;19.42;62.66;100929.31;7394898;19;1451;-42
2023/12/07 04:48:00;;;;;;;;;;;;;;;19.03;63.57;100925.59;7391803;19;1538;-42
2023/12/07 04:50:28;;;;;;;;;;;;;;;18.81;64.39;100927.41;7393745;19;1427;-42
2023/12/07 04:52:57;;;;;;;;;;;;;;;18.98;63.99;100920.63;7392468;19;1867;-43
2023/12/07 04:55:26;;;;;;;;;;;;;;;19.45;63.18;100931.72;7393461;19;1597;-42
2023/12/07 04:57:54;;;;;;;;;;;;;;;19.75;61.52;100921.97;7393341;19;1433;-42
2023/12/07 05:00:22;;;;;;;;;;;;;;;19.38;62.37;100919.00;7392759;19;1506;-42
2023/12/07 05:02:51;;;;;;;;;;;;;;;18.98;63.33;100934.03;7394708;19;1617;-42
2023/12/07 05:05:22;;;;;;;;;;;;;;;18.74;63.77;100934.25;7396051;19;1713;-42
2023/12/07 05:07:50;;;;;;;;;;;;;;;18.93;63.77;100930.88;7395851;19;1090;-42
2023/12/07 05:10:18;;;;;;;;;;;;;;;19.33;62.66;100946.19;7394774;19;1740;-43
2023/12/07 05:12:47;;;;;;;;;;;;;;;19.58;61.82;100934.19;7392830;19;1839;-42
2023/12/07 05:15:15;;;;;;;;;;;;;;;19.30;62.65;100941.13;7393481;19;1486;-42
2023/12/07 05:17:43;;;;;;;;;;;;;;;18.93;63.45;100938.91;7390477;19;1745;-42
2023/12/07 05:20:12;;;;;;;;;;;;;;;18.68;64.16;100935.63;7377553;19;1650;-42
2023/12/07 05:22:43;;;;;;;;;;;;;;;18.86;63.96;100948.44;7394419;19;1503;-42
2023/12/07 05:25:11;;;;;;;;;;;;;;;19.28;62.78;100945.78;7393395;19;1523;-42
2023/12/07 05:27:40;;;;;;;;;;;;;;;19.70;61.76;100959.09;7395739;19;1254;-42
2023/12/07 05:30:09;;;;;;;;;;;;;;;19.37;62.52;100958.34;7392880;19;1955;-42
2023/12/07 05:32:37;;;;;;;;;;;;;;;18.98;63.52;100958.16;7392365;19;1901;-42
2023/12/07 05:35:06;;;;;;;;;;;;;;;18.66;64.28;100953.66;7393673;19;1561;-42
2023/12/07 05:37:34;;;;;;;;;;;;;;;18.82;64.04;100955.03;7393879;19;1835;-42
2023/12/07 05:40:05;;;;;;;;;;;;;;;19.14;63.38;100952.31;7394195;19;1732;-42
2023/12/07 05:42:34;;;;;;;;;;;;;;;19.48;62.80;100952.06;7392581;19;1560;-42
2023/12/07 05:45:02;;;;;;;;;;;;;;;19.32;62.92;100947.19;7393964;19;1645;-42
2023/12/07 05:47:30;;;;;;;;;;;;;;;18.92;64.01;100957.78;7392472;19;1768;-42
2023/12/07 05:49:59;;;;;;;;;;;;;;;18.72;64.44;100956.78;7391918;19;1721;-42
2023/12/07 05:52:28;;;;;;;;;;;;;;;18.81;64.19;100959.56;7392715;19;1870;-42
2023/12/07 05:54:56;;;;;;;;;;;;;;;19.14;63.52;100957.69;7393694;19;1456;-42
2023/12/07 05:57:28;;;;;;;;;;;;;;;19.41;62.96;100965.16;7394384;19;1747;-42
2023/12/07 05:59:56;;;;;;;;;;;;;;;19.57;62.50;100970.03;7391796;19;1458;-42
2023/12/07 06:02:24;;;;;;;;;;;;;;;19.19;63.54;100974.19;7393260;19;1152;-42
2023/12/07 06:04:53;;;;;;;;;;;;;;;18.92;64.33;100969.38;7391396;19;1391;-43
2023/12/07 06:07:21;;;;;;;;;;;;;;;18.71;65.00;100972.00;7391636;19;2062;-42
2023/12/07 06:09:49;;;;;;;;;;;;;;;18.88;64.50;100962.59;7392345;19;1903;-42
2023/12/07 06:12:18;;;;;;;;;;;;;;;19.26;62.00;100967.34;7389047;19;1856;-42
2023/12/07 06:14:48;;;;;;;;;;;;;;;19.66;60.72;100954.97;7389066;19;1329;-42
2023/12/07 06:17:17;;;;;;;;;;;;;;;19.38;61.59;100960.06;7388712;19;1633;-42
2023/12/07 06:19:45;;;;;;;;;;;;;;;18.97;62.53;100971.66;7372854;19;1499;-42
2023/12/07 06:22:13;;;;;;;;;;;;;;;18.60;63.16;100978.28;7386992;19;1371;-42
2023/12/07 06:24:42;;;;;;;;;;;;;;;18.81;62.54;100980.16;7387121;19;1130;-42
2023/12/07 06:27:10;;;;;;;;;;;;;;;19.22;61.26;100959.72;7391765;19;1562;-41
2023/12/07 06:29:39;;;;;;;;;;;;;;;19.62;59.99;100967.81;7389333;19;1414;-44
2023/12/07 06:32:10;;;;;;;;;;;;;;;19.47;60.29;100982.53;7385318;19;1849;-44
2023/12/07 06:48:32;;;;;;;;;;;;;;;19.26;57.69;100972.72;7257418;19;3015813;-41
2023/12/07 06:51:00;;;;;;;;;;;;;;;19.52;57.15;100976.78;7421234;19;1386;-42
2023/12/07 06:53:29;;;;;;;;;;;;;;;19.45;57.16;100971.94;7424361;19;1555;-41
2023/12/07 06:55:57;;;;;;;;;;;;;;;19.43;57.21;100976.59;7425588;19;1824;-41
2023/12/07 06:58:25;;;;;;;;;;;;;;;19.44;57.43;100996.25;7426141;19;1584;-41
2023/12/07 07:00:53;;;;;;;;;;;;;;;19.42;57.43;100985.63;7428189;19;1744;-41
2023/12/07 07:03:22;;;;;;;;;;;;;;;19.41;57.60;101001.84;7426764;19;1469;-41
2023/12/07 07:05:53;;;;;;;;;;;;;;;19.39;57.75;101004.66;7426728;19;1386;-41
2023/12/07 07:08:21;;;;;;;;;;;;;;;19.37;58.11;101006.63;7425997;19;1918;-44
2023/12/07 07:10:50;;;;;;;;;;;;;;;19.40;57.72;100990.28;7426785;19;1725;-41
2023/12/07 07:13:20;;;;;;;;;;;;;;;19.47;57.73;101017.41;7425115;19;1315;-41
2023/12/07 07:15:48;;;;;;;;;;;;;;;19.44;57.80;101002.44;7423089;19;1867;-41
2023/12/07 07:18:16;;;;;;;;;;;;;;;19.44;58.02;100988.19;7425716;19;1775;-41
2023/12/07 07:20:45;;;;;;;;;;;;;;;19.45;57.89;100980.00;7426059;19;1742;-41
2023/12/07 07:23:16;;;;;;;;;;;;;;;19.45;58.05;100982.69;7425844;19;1586;-42
2023/12/07 07:25:44;;;;;;;;;;;;;;;19.51;58.00;100985.81;7425658;19;1552;-41
2023/12/07 07:28:12;;;;;;;;;;;;;;;19.53;57.74;100995.41;7425255;19;1559;-42
2023/12/07 07:30:41;;;;;;;;;;;;;;;19.52;57.74;101015.19;7424884;19;1378;-42
2023/12/07 07:33:09;;;;;;;;;;;;;;;19.54;57.75;101004.34;7426106;19;1260;-41
2023/12/07 07:35:37;;;;;;;;;;;;;;;19.52;57.92;100999.09;7424134;19;1512;-41
2023/12/07 07:38:06;;;;;;;;;;;;;;;19.55;57.88;100992.63;7419011;19;1870;-41
2023/12/07 07:40:36;;;;;;;;;;;;;;;19.48;57.94;100995.00;7422627;19;1754;-57
2023/12/07 07:43:05;;;;;;;;;;;;;;;19.48;57.98;100998.50;7423058;19;1725;-41
2023/12/07 07:45:34;;;;;;;;;;;;;;;19.53;57.88;100989.22;7423320;19;1359;-41
2023/12/07 07:48:03;;;;;;;;;;;;;;;19.52;57.99;100999.09;7410053;19;1452;-41
2023/12/07 07:50:31;;;;;;;;;;;;;;;19.52;58.16;100998.22;7393361;19;1460;-42
2023/12/07 07:53:00;;;;;;;;;;;;;;;19.52;58.06;100998.22;7394211;19;1397;-41
2023/12/07 07:55:28;;;;;;;;;;;;;;;19.52;58.00;101003.59;7393798;19;1602;-42
2023/12/07 07:57:59;;;;;;;;;;;;;;;19.56;58.05;101005.06;7393297;19;1861;-41
2023/12/07 08:00:28;;;;;;;;;;;;;;;19.53;58.11;101021.41;7395934;19;1151;-41
2023/12/07 08:02:56;;;;;;;;;;;;;;;19.53;58.01;101016.88;7395465;19;1919;-41
2023/12/07 08:05:25;;;;;;;;;;;;;;;19.62;57.83;101015.25;7394828;19;1813;-41
2023/12/07 08:07:54;;;;;;;;;;;;;;;19.63;57.78;101022.31;7394327;19;1824;-43
2023/12/07 08:10:22;;;;;;;;;;;;;;;19.58;58.07;101019.19;7394874;19;1781;-41
2023/12/07 08:12:50;;;;;;;;;;;;;;;19.66;57.91;101017.53;7393697;19;1381;-41
2023/12/07 08:15:21;;;;;;;;;;;;;;;19.67;58.00;101023.72;7393848;19;1755;-41
2023/12/07 08:17:50;;;;;;;;;;;;;;;19.66;57.95;101022.06;7391289;19;1870;-41
2023/12/07 08:20:19;;;;;;;;;;;;;;;19.68;57.87;101015.56;7392731;19;1227;-41
2023/12/07 08:22:47;;;;;;;;;;;;;;;19.76;57.73;101038.22;7392266;19;1477;-41
2023/12/07 08:25:17;;;;;;;;;;;;;;;19.67;58.02;101018.38;7393161;19;1924;-41
2023/12/07 08:27:47;;;;;;;;;;;;;;;19.72;57.55;101021.53;7393646;19;1516;-41
2023/12/07 08:30:15;;;;;;;;;;;;;;;19.73;57.79;101031.28;7394467;19;1794;-41
2023/12/07 08:32:46;;;;;;;;;;;;;;;19.74;57.76;101024.94;7393041;19;1513;-41
2023/12/07 08:35:15;;;;;;;;;;;;;;;19.82;57.57;101033.16;7391863;19;1465;-41
2023/12/07 08:37:43;;;;;;;;;;;;;;;19.76;57.66;101031.03;7392785;19;1856;-41
2023/12/07 08:40:15;;;;;;;;;;;;;;;19.83;57.62;101039.38;7392322;19;1548;-42
2023/12/07 08:42:43;;;;;;;;;;;;;;;19.75;57.87;101033.84;7391551;19;1802;-41
2023/12/07 08:45:13;;;;;;;;;;;;;;;19.71;58.11;101062.75;7392973;19;1743;-46
2023/12/07 08:47:41;;;;;;;;;;;;;;;19.64;58.19;101046.31;7390792;19;1852;-55
2023/12/07 08:50:12;;;;;;;;;;;;;;;19.66;57.94;101049.72;7391320;19;1433;-41
2023/12/07 08:52:41;;;;;;;;;;;;;;;19.67;57.91;101050.56;7392475;19;1773;-41
2023/12/07 08:55:09;;;;;;;;;;;;;;;19.68;57.96;101037.03;7393834;19;1806;-41
2023/12/07 08:57:38;;;;;;;;;;;;;;;19.69;58.13;101064.69;7393274;19;1842;-41
2023/12/07 09:00:07;;;;;;;;;;;;;;;19.68;58.09;101060.31;7391250;19;1584;-41
2023/12/07 09:02:35;;;;;;;;;;;;;;;19.68;58.07;101054.97;7393951;19;2125;-42
2023/12/07 09:05:03;;;;;;;;;;;;;;;19.66;58.01;101054.25;7394018;19;1389;-42
2023/12/07 09:07:34;;;;;;;;;;;;;;;19.73;57.79;101043.84;7392759;19;1479;-46
2023/12/07 09:10:03;;;;;;;;;;;;;;;19.72;57.89;101053.75;7392406;19;1717;-41
2023/12/07 09:12:31;;;;;;;;;;;;;;;19.79;58.00;101044.16;7391712;19;1609;-41
2023/12/07 09:14:59;;;;;;;;;;;;;;;19.81;57.71;101047.56;7391699;19;1761;-42
2023/12/07 09:17:27;;;;;;;;;;;;;;;19.76;58.00;101054.34;7392253;19;1841;-41
2023/12/07 09:19:56;;;;;;;;;;;;;;;19.75;57.98;101058.81;7393501;19;1735;-42
2023/12/07 09:22:25;;;;;;;;;;;;;;;19.71;58.18;101046.66;7392517;19;1568;-41
2023/12/07 09:24:56;;;;;;;;;;;;;;;19.71;57.92;101040.41;7389463;19;1833;-41
2023/12/07 09:27:25;;;;;;;;;;;;;;;19.71;57.88;101040.41;7392715;19;1377;-42
2023/12/07 09:29:53;;;;;;;;;;;;;;;19.68;58.01;101041.53;7395308;19;1448;-41
2023/12/07 09:32:22;;;;;;;;;;;;;;;19.72;57.97;101055.59;7395845;19;1817;-41
2023/12/07 09:34:51;;;;;;;;;;;;;;;19.78;58.12;101053.22;7393740;19;1417;-41
2023/12/07 09:37:19;;;;;;;;;;;;;;;19.68;58.16;101047.75;7391946;19;1851;-41
2023/12/07 09:39:47;;;;;;;;;;;;;;;19.77;57.89;101051.50;7394548;19;1497;-41
2023/12/07 09:42:18;;;;;;;;;;;;;;;19.81;57.91;101057.44;7393871;19;1521;-41
2023/12/07 09:44:46;;;;;;;;;;;;;;;19.82;57.47;101043.91;7393808;19;1738;-41
2023/12/07 09:47:16;;;;;;;;;;;;;;;19.81;57.70;101042.19;7391590;19;1529;-42
2023/12/07 09:49:42;;;;;;;;;;;;;;;19.85;57.54;101038.25;7392948;19;1052;-41
2023/12/07 09:52:10;;;;;;;;;;;;;;;19.86;57.44;101041.81;7392789;19;1906;-41
2023/12/07 09:54:42;;;;;;;;;;;;;;;19.87;57.02;101040.81;7390668;19;1542;-42
2023/12/07 09:57:11;;;;;;;;;;;;;;;19.85;57.51;101048.13;7390280;19;1874;-41
2023/12/07 09:59:42;;;;;;;;;;;;;;;19.83;57.31;101040.22;7391339;19;1746;-41
2023/12/07 10:02:11;;;;;;;;;;;;;;;19.74;57.50;101038.34;7390918;19;1405;-42
2023/12/07 10:04:39;;;;;;;;;;;;;;;19.79;57.11;101048.69;7390299;19;1945;-41
2023/12/07 10:07:08;;;;;;;;;;;;;;;19.77;57.36;101035.38;7388886;19;1479;-41
2023/12/07 10:09:37;;;;;;;;;;;;;;;19.74;57.39;101042.88;7391748;19;1714;-41
2023/12/07 10:12:05;;;;;;;;;;;;;;;19.71;57.48;101038.59;7390665;19;1823;-41
2023/12/07 10:14:34;;;;;;;;;;;;;;;19.74;57.28;101030.31;7389709;19;1408;-41
2023/12/07 10:17:05;;;;;;;;;;;;;;;19.72;57.51;101023.38;7389359;19;1886;-41
2023/12/07 10:19:34;;;;;;;;;;;;;;;19.70;57.30;101028.84;7390042;19;1643;-41
2023/12/07 10:22:02;;;;;;;;;;;;;;;19.80;57.24;101028.94;7392127;19;1042;-41
2023/12/07 10:24:31;;;;;;;;;;;;;;;19.81;57.23;101036.81;7390754;19;1789;-41
2023/12/07 10:26:59;;;;;;;;;;;;;;;19.78;57.52;101025.53;7389995;19;1892;-41
2023/12/07 10:29:30;;;;;;;;;;;;;;;19.77;57.32;101026.50;7390659;19;1943;-42
2023/12/07 10:32:04;;;;;;;;;;;;;;;19.72;57.26;101032.28;7391087;19;1598;-41
2023/12/07 10:34:34;;;;;;;;;;;;;;;19.75;57.48;101031.16;7390931;19;1666;-41
2023/12/07 10:37:04;;;;;;;;;;;;;;;19.74;57.35;101027.63;7387263;19;1866;-41
2023/12/07 10:39:32;;;;;;;;;;;;;;;19.73;57.36;101033.97;7391133;19;1638;-41
2023/12/07 10:42:04;;;;;;;;;;;;;;;19.74;57.40;101032.16;7390351;19;1711;-41
2023/12/07 10:44:35;;;;;;;;;;;;;;;19.78;57.42;101033.59;7390804;19;1472;-41
2023/12/07 10:47:10;;;;;;;;;;;;;;;19.80;57.27;101028.94;7388836;19;1663;-41
2023/12/07 10:49:39;;;;;;;;;;;;;;;19.79;57.43;101022.69;7390760;19;1816;-41
2023/12/07 10:52:10;;;;;;;;;;;;;;;19.79;57.44;101028.06;7390056;19;1448;-41
2023/12/07 10:54:43;;;;;;;;;;;;;;;19.89;57.20;101030.78;7389405;19;1381;-41
2023/12/07 10:57:14;;;;;;;;;;;;;;;19.84;57.42;101023.16;7388865;19;1844;-41
2023/12/07 10:59:43;;;;;;;;;;;;;;;19.82;57.32;101022.44;7389834;19;1733;-41
2023/12/07 11:02:15;;;;;;;;;;;;;;;19.85;57.44;101032.03;7390001;19;1797;-41
2023/12/07 11:04:43;;;;;;;;;;;;;;;19.79;57.35;101024.53;7389975;19;1750;-41
2023/12/07 11:07:13;;;;;;;;;;;;;;;19.77;57.43;101016.59;7386574;19;1832;-41
2023/12/07 11:09:45;;;;;;;;;;;;;;;19.79;57.43;101014.63;7388682;19;1733;-41
2023/12/07 11:12:16;;;;;;;;;;;;;;;19.76;57.44;101011.41;7390085;19;1674;-41
2023/12/07 11:14:45;;;;;;;;;;;;;;;19.78;57.53;101021.00;7389520;19;1807;-42
2023/12/07 11:17:17;;;;;;;;;;;;;;;19.78;57.59;101023.69;7387506;19;1852;-41
2023/12/07 11:19:46;;;;;;;;;;;;;;;19.79;57.59;101017.31;7386948;19;1560;-41
2023/12/07 11:22:15;;;;;;;;;;;;;;;19.84;57.59;101001.69;7387493;19;1384;-41
2023/12/07 11:25:00;;;;;;;;;;;;;;;19.89;57.43;101022.72;7391447;19;1390;-42
2023/12/07 11:27:31;;;;;;;;;;;;;;;19.82;57.54;101022.44;7394991;19;1701;-41
2023/12/07 11:30:01;;;;;;;;;;;;;;;19.92;56.85;101013.59;7396638;19;1113;-41
2023/12/07 11:32:32;;;;;;;;;;;;;;;19.92;57.06;101005.53;7395748;19;1981;-41
2023/12/07 11:35:04;;;;;;;;;;;;;;;19.93;56.86;101026.84;7392827;19;1821;-42
2023/12/07 11:38:02;;;;;;;;;;;;;;;19.98;56.73;101021.94;7390238;19;1846;-41
2023/12/07 11:40:31;;;;;;;;;;;;;;;20.02;56.55;101039.47;7392652;19;1717;-41
2023/12/07 11:43:01;;;;;;;;;;;;;;;19.92;56.99;101021.63;7392623;19;1620;-41
2023/12/07 11:45:39;;;;;;;;;;;;;;;19.52;57.71;101022.38;7393481;19;1804;-41
2023/12/07 11:48:18;;;;;;;;;;;;;;;19.15;58.67;101028.22;7393780;19;1563;-41
2023/12/07 11:50:59;;;;;;;;;;;;;;;18.85;59.71;101029.81;7395471;19;1832;-41
2023/12/07 11:53:29;;;;;;;;;;;;;;;18.68;59.88;101023.13;7392344;19;1458;-41
2023/12/07 11:55:58;;;;;;;;;;;;;;;18.63;59.99;101011.97;7392444;19;1941;-41
2023/12/07 11:58:27;;;;;;;;;;;;;;;18.50;60.14;101028.19;7390467;19;1889;-41
2023/12/07 12:00:56;;;;;;;;;;;;;;;18.80;59.86;101023.97;7391522;19;1675;-41
2023/12/07 12:03:27;;;;;;;;;;;;;;;19.50;58.00;101025.22;7392628;19;1643;-41
2023/12/07 12:05:56;;;;;;;;;;;;;;;19.79;57.08;101017.31;7393855;19;1057;-41
2023/12/07 12:08:24;;;;;;;;;;;;;;;19.43;57.71;101006.09;7395850;19;1785;-41
2023/12/07 12:10:56;;;;;;;;;;;;;;;18.98;58.96;101016.22;7396492;19;1846;-41
2023/12/07 12:13:28;;;;;;;;;;;;;;;18.71;59.43;101020.22;7396169;19;1744;-41
2023/12/07 12:15:57;;;;;;;;;;;;;;;18.93;58.95;101027.34;7396675;19;1719;-41
2023/12/07 12:18:29;;;;;;;;;;;;;;;19.46;57.88;101019.25;7395444;19;1858;-41
2023/12/07 12:20:59;;;;;;;;;;;;;;;19.82;56.83;101009.00;7396907;19;1698;-41
2023/12/07 12:23:28;;;;;;;;;;;;;;;19.44;57.56;100997.09;7394484;19;1484;-41
2023/12/07 12:25:58;;;;;;;;;;;;;;;18.93;58.57;101018.47;7395969;19;1512;-41
2023/12/07 12:28:26;;;;;;;;;;;;;;;18.61;59.16;101009.41;7394438;19;1489;-41
2023/12/07 12:30:54;;;;;;;;;;;;;;;18.92;58.41;101014.06;7395737;19;1738;-41
2023/12/07 12:33:23;;;;;;;;;;;;;;;19.10;57.94;101004.50;7395200;19;1716;-42
2023/12/07 12:36:05;;;;;;;;;;;;;;;19.33;57.54;101004.34;7394876;19;1409;-41
2023/12/07 12:38:33;;;;;;;;;;;;;;;19.57;56.84;101025.53;7394524;19;1928;-41
2023/12/07 12:41:03;;;;;;;;;;;;;;;19.68;56.72;101014.72;7395220;19;1456;-41
2023/12/07 12:43:32;;;;;;;;;;;;;;;19.67;56.77;101013.00;7395314;19;1801;-42
2023/12/07 12:46:00;;;;;;;;;;;;;;;19.60;56.73;101020.75;7394019;19;1574;-42
2023/12/07 12:48:28;;;;;;;;;;;;;;;19.61;56.72;101021.59;7394489;19;1905;-42
2023/12/07 12:50:57;;;;;;;;;;;;;;;19.60;56.96;101017.22;7394008;19;1912;-42
2023/12/07 12:53:29;;;;;;;;;;;;;;;19.62;56.86;101025.97;7395219;19;1763;-41
2023/12/07 12:55:58;;;;;;;;;;;;;;;19.61;56.82;101014.38;7394607;19;1647;-41
2023/12/07 12:58:26;;;;;;;;;;;;;;;19.62;56.70;101013.41;7392793;19;1866;-41
2023/12/07 13:00:54;;;;;;;;;;;;;;;19.64;56.75;101024.03;7394512;19;1821;-41
2023/12/07 13:03:23;;;;;;;;;;;;;;;19.67;56.69;101029.09;7392101;19;1836;-41
2023/12/07 13:05:51;;;;;;;;;;;;;;;19.64;56.61;101027.53;7396229;19;1056;-42
2023/12/07 13:08:19;;;;;;;;;;;;;;;19.66;56.75;101032.78;7393230;19;1489;-41
2023/12/07 13:10:50;;;;;;;;;;;;;;;19.65;56.67;101041.78;7393726;19;1588;-42
2023/12/07 13:13:19;;;;;;;;;;;;;;;19.65;56.71;101039.13;7393852;19;1398;-42